sensor_id;sensor_type;location;lat;lon;timestamp;temperature;humidity
17659;DHT22;8948;51.534;8.262;2023-04-22T00:04:59;13.60;66.10
17659;DHT22;8948;51.534;8.262;2023-04-22T00:10:00;13.50;66.50
17659;DHT22;8948;51.534;8.262;2023-04-22T00:15:01;13.30;66.80
17659;DHT22;8948;51.534;8.262;2023-04-22T00:20:01;13.30;67.00
17659;DHT22;8948;51.534;8.262;2023-04-22T00:25:03;13.20;66.80
17659;DHT22;8948;51.534;8.262;2023-04-22T00:30:04;13.10;67.00
17659;DHT22;8948;51.534;8.262;2023-04-22T00:35:05;13.00;67.20
17659;DHT22;8948;51.534;8.262;2023-04-22T00:40:07;12.90;67.50
17659;DHT22;8948;51.534;8.262;2023-04-22T00:45:10;12.80;67.70
17659;DHT22;8948;51.534;8.262;2023-04-22T00:50:11;12.80;67.50
17659;DHT22;8948;51.534;8.262;2023-04-22T00:55:12;12.80;67.40
17659;DHT22;8948;51.534;8.262;2023-04-22T01:00:13;12.80;67.70
17659;DHT22;8948;51.534;8.262;2023-04-22T01:05:13;12.70;67.80
17659;DHT22;8948;51.534;8.262;2023-04-22T01:10:14;12.70;67.80
17659;DHT22;8948;51.534;8.262;2023-04-22T01:15:15;12.70;68.20
17659;DHT22;8948;51.534;8.262;2023-04-22T01:20:15;12.70;68.10
17659;DHT22;8948;51.534;8.262;2023-04-22T01:25:16;12.70;68.20
17659;DHT22;8948;51.534;8.262;2023-04-22T01:30:17;12.70;67.90
17659;DHT22;8948;51.534;8.262;2023-04-22T01:35:17;12.70;67.90
17659;DHT22;8948;51.534;8.262;2023-04-22T01:40:18;12.70;68.10
17659;DHT22;8948;51.534;8.262;2023-04-22T01:45:21;12.60;68.50
17659;DHT22;8948;51.534;8.262;2023-04-22T01:50:22;12.60;68.30
17659;DHT22;8948;51.534;8.262;2023-04-22T01:55:23;12.60;68.30
17659;DHT22;8948;51.534;8.262;2023-04-22T02:00:24;12.60;68.10
17659;DHT22;8948;51.534;8.262;2023-04-22T02:05:25;12.70;68.30
17659;DHT22;8948;51.534;8.262;2023-04-22T02:10:26;12.70;68.00
17659;DHT22;8948;51.534;8.262;2023-04-22T02:15:27;12.60;67.90
17659;DHT22;8948;51.534;8.262;2023-04-22T02:20:27;12.60;68.00
17659;DHT22;8948;51.534;8.262;2023-04-22T02:25:28;12.60;68.00
17659;DHT22;8948;51.534;8.262;2023-04-22T02:30:29;12.60;67.50
17659;DHT22;8948;51.534;8.262;2023-04-22T02:35:29;12.50;67.90
17659;DHT22;8948;51.534;8.262;2023-04-22T02:40:30;12.30;68.20
17659;DHT22;8948;51.534;8.262;2023-04-22T02:45:30;12.20;68.60
17659;DHT22;8948;51.534;8.262;2023-04-22T02:50:31;12.20;68.30
17659;DHT22;8948;51.534;8.262;2023-04-22T02:55:31;12.10;68.80
17659;DHT22;8948;51.534;8.262;2023-04-22T03:00:32;12.10;68.60
17659;DHT22;8948;51.534;8.262;2023-04-22T03:05:33;12.20;68.30
17659;DHT22;8948;51.534;8.262;2023-04-22T03:10:33;12.30;68.30
17659;DHT22;8948;51.534;8.262;2023-04-22T03:15:34;12.40;67.60
17659;DHT22;8948;51.534;8.262;2023-04-22T03:20:35;12.30;67.60
17659;DHT22;8948;51.534;8.262;2023-04-22T03:25:35;12.30;67.50
17659;DHT22;8948;51.534;8.262;2023-04-22T03:30:36;12.30;68.20
17659;DHT22;8948;51.534;8.262;2023-04-22T03:35:36;12.30;67.80
17659;DHT22;8948;51.534;8.262;2023-04-22T03:40:37;12.30;67.70
17659;DHT22;8948;51.534;8.262;2023-04-22T03:45:38;12.20;67.80
17659;DHT22;8948;51.534;8.262;2023-04-22T03:50:38;12.30;67.80
17659;DHT22;8948;51.534;8.262;2023-04-22T03:55:40;12.30;67.70
17659;DHT22;8948;51.534;8.262;2023-04-22T04:00:40;12.40;67.60
17659;DHT22;8948;51.534;8.262;2023-04-22T04:05:41;12.40;67.40
17659;DHT22;8948;51.534;8.262;2023-04-22T04:10:41;12.30;67.70
17659;DHT22;8948;51.534;8.262;2023-04-22T04:15:42;12.40;67.50
17659;DHT22;8948;51.534;8.262;2023-04-22T04:20:43;12.40;67.60
17659;DHT22;8948;51.534;8.262;2023-04-22T04:25:43;12.40;67.20
17659;DHT22;8948;51.534;8.262;2023-04-22T04:30:45;12.50;67.00
17659;DHT22;8948;51.534;8.262;2023-04-22T04:35:45;12.60;66.90
17659;DHT22;8948;51.534;8.262;2023-04-22T04:40:49;12.70;66.70
17659;DHT22;8948;51.534;8.262;2023-04-22T04:45:50;12.70;66.50
17659;DHT22;8948;51.534;8.262;2023-04-22T04:50:52;12.60;66.90
17659;DHT22;8948;51.534;8.262;2023-04-22T04:55:53;12.60;67.20
17659;DHT22;8948;51.534;8.262;2023-04-22T05:00:54;12.70;67.10
17659;DHT22;8948;51.534;8.262;2023-04-22T05:05:55;12.70;67.40
17659;DHT22;8948;51.534;8.262;2023-04-22T05:10:55;12.70;67.00
17659;DHT22;8948;51.534;8.262;2023-04-22T05:15:56;12.80;66.60
17659;DHT22;8948;51.534;8.262;2023-04-22T05:20:57;12.80;66.50
17659;DHT22;8948;51.534;8.262;2023-04-22T05:26:03;12.90;66.00
17659;DHT22;8948;51.534;8.262;2023-04-22T05:31:03;13.00;66.00
17659;DHT22;8948;51.534;8.262;2023-04-22T05:36:04;13.10;65.90
17659;DHT22;8948;51.534;8.262;2023-04-22T05:41:05;13.10;65.70
17659;DHT22;8948;51.534;8.262;2023-04-22T05:46:06;13.20;66.00
17659;DHT22;8948;51.534;8.262;2023-04-22T05:51:06;13.20;65.50
17659;DHT22;8948;51.534;8.262;2023-04-22T05:56:07;13.40;65.40
17659;DHT22;8948;51.534;8.262;2023-04-22T06:01:08;13.60;64.70
17659;DHT22;8948;51.534;8.262;2023-04-22T06:06:08;13.90;64.00
17659;DHT22;8948;51.534;8.262;2023-04-22T06:11:09;14.20;63.20
17659;DHT22;8948;51.534;8.262;2023-04-22T06:16:10;14.50;61.80
17659;DHT22;8948;51.534;8.262;2023-04-22T06:21:11;14.80;61.50
17659;DHT22;8948;51.534;8.262;2023-04-22T06:26:12;15.00;61.40
17659;DHT22;8948;51.534;8.262;2023-04-22T06:31:12;15.30;61.00
17659;DHT22;8948;51.534;8.262;2023-04-22T06:36:13;15.50;59.90
17659;DHT22;8948;51.534;8.262;2023-04-22T06:41:13;15.60;59.30
17659;DHT22;8948;51.534;8.262;2023-04-22T06:46:15;15.70;59.40
17659;DHT22;8948;51.534;8.262;2023-04-22T06:51:16;15.80;58.80
17659;DHT22;8948;51.534;8.262;2023-04-22T06:56:16;15.90;59.10
17659;DHT22;8948;51.534;8.262;2023-04-22T07:01:17;16.10;59.10
17659;DHT22;8948;51.534;8.262;2023-04-22T07:06:18;16.30;59.10
17659;DHT22;8948;51.534;8.262;2023-04-22T07:11:19;16.50;57.30
17659;DHT22;8948;51.534;8.262;2023-04-22T07:16:20;16.60;58.00
17659;DHT22;8948;51.534;8.262;2023-04-22T07:21:21;16.80;57.20
17659;DHT22;8948;51.534;8.262;2023-04-22T07:26:21;16.90;55.90
17659;DHT22;8948;51.534;8.262;2023-04-22T07:31:22;16.80;57.10
17659;DHT22;8948;51.534;8.262;2023-04-22T07:36:22;16.90;57.10
17659;DHT22;8948;51.534;8.262;2023-04-22T07:41:23;17.10;56.80
17659;DHT22;8948;51.534;8.262;2023-04-22T07:46:24;17.40;56.30
17659;DHT22;8948;51.534;8.262;2023-04-22T07:51:24;17.50;55.10
17659;DHT22;8948;51.534;8.262;2023-04-22T07:56:25;17.50;54.20
17659;DHT22;8948;51.534;8.262;2023-04-22T08:01:26;17.50;54.10
17659;DHT22;8948;51.534;8.262;2023-04-22T08:06:26;17.50;53.00
17659;DHT22;8948;51.534;8.262;2023-04-22T08:11:27;17.80;54.30
17659;DHT22;8948;51.534;8.262;2023-04-22T08:16:28;18.20;53.70
17659;DHT22;8948;51.534;8.262;2023-04-22T08:21:28;18.60;53.30
17659;DHT22;8948;51.534;8.262;2023-04-22T08:26:29;18.70;51.60
17659;DHT22;8948;51.534;8.262;2023-04-22T08:31:29;19.20;50.90
17659;DHT22;8948;51.534;8.262;2023-04-22T08:36:30;19.20;50.90
17659;DHT22;8948;51.534;8.262;2023-04-22T08:41:33;19.40;51.20
17659;DHT22;8948;51.534;8.262;2023-04-22T08:46:35;19.20;48.10
17659;DHT22;8948;51.534;8.262;2023-04-22T08:51:36;19.60;49.80
17659;DHT22;8948;51.534;8.262;2023-04-22T08:56:42;19.70;47.70
17659;DHT22;8948;51.534;8.262;2023-04-22T09:01:43;19.90;48.00
17659;DHT22;8948;51.534;8.262;2023-04-22T09:06:47;20.10;49.10
17659;DHT22;8948;51.534;8.262;2023-04-22T09:11:48;20.10;46.80
17659;DHT22;8948;51.534;8.262;2023-04-22T09:16:49;20.40;45.00
17659;DHT22;8948;51.534;8.262;2023-04-22T09:21:49;20.50;47.30
17659;DHT22;8948;51.534;8.262;2023-04-22T09:26:50;20.80;44.50
17659;DHT22;8948;51.534;8.262;2023-04-22T09:31:51;21.00;45.60
17659;DHT22;8948;51.534;8.262;2023-04-22T09:36:53;21.20;44.80
17659;DHT22;8948;51.534;8.262;2023-04-22T09:41:54;21.30;44.50
17659;DHT22;8948;51.534;8.262;2023-04-22T09:46:55;21.50;45.00
17659;DHT22;8948;51.534;8.262;2023-04-22T09:51:56;21.60;45.50
17659;DHT22;8948;51.534;8.262;2023-04-22T09:56:57;21.60;45.30
17659;DHT22;8948;51.534;8.262;2023-04-22T10:01:59;21.60;45.00
17659;DHT22;8948;51.534;8.262;2023-04-22T10:07:02;21.80;45.20
17659;DHT22;8948;51.534;8.262;2023-04-22T10:12:04;22.00;43.30
17659;DHT22;8948;51.534;8.262;2023-04-22T10:17:04;21.70;42.80
17659;DHT22;8948;51.534;8.262;2023-04-22T10:22:05;21.30;44.50
17659;DHT22;8948;51.534;8.262;2023-04-22T10:27:09;21.30;42.90
17659;DHT22;8948;51.534;8.262;2023-04-22T10:37:20;21.80;42.20
17659;DHT22;8948;51.534;8.262;2023-04-22T10:42:20;22.10;42.30
17659;DHT22;8948;51.534;8.262;2023-04-22T10:47:35;22.40;42.40
17659;DHT22;8948;51.534;8.262;2023-04-22T10:52:37;22.70;43.20
17659;DHT22;8948;51.534;8.262;2023-04-22T10:57:40;22.90;41.50
17659;DHT22;8948;51.534;8.262;2023-04-22T11:02:43;23.00;40.60
17659;DHT22;8948;51.534;8.262;2023-04-22T11:07:45;23.20;40.80
17659;DHT22;8948;51.534;8.262;2023-04-22T11:12:48;23.40;39.70
17659;DHT22;8948;51.534;8.262;2023-04-22T11:17:51;23.50;39.10
17659;DHT22;8948;51.534;8.262;2023-04-22T11:22:54;23.30;39.20
17659;DHT22;8948;51.534;8.262;2023-04-22T11:27:55;23.50;39.40
17659;DHT22;8948;51.534;8.262;2023-04-22T11:32:58;23.90;39.60
17659;DHT22;8948;51.534;8.262;2023-04-22T11:38:04;23.80;39.60
17659;DHT22;8948;51.534;8.262;2023-04-22T11:43:06;23.80;40.40
17659;DHT22;8948;51.534;8.262;2023-04-22T11:48:09;24.20;42.00
17659;DHT22;8948;51.534;8.262;2023-04-22T11:53:20;24.00;40.60
17659;DHT22;8948;51.534;8.262;2023-04-22T11:58:24;23.90;38.90
17659;DHT22;8948;51.534;8.262;2023-04-22T12:03:28;24.00;39.10
17659;DHT22;8948;51.534;8.262;2023-04-22T12:08:33;24.10;37.90
17659;DHT22;8948;51.534;8.262;2023-04-22T12:18:51;25.00;37.40
17659;DHT22;8948;51.534;8.262;2023-04-22T12:24:10;25.20;36.80
17659;DHT22;8948;51.534;8.262;2023-04-22T12:29:10;25.00;35.80
17659;DHT22;8948;51.534;8.262;2023-04-22T12:34:11;24.20;37.00
17659;DHT22;8948;51.534;8.262;2023-04-22T12:39:11;23.80;38.20
17659;DHT22;8948;51.534;8.262;2023-04-22T12:44:12;24.70;38.00
17659;DHT22;8948;51.534;8.262;2023-04-22T12:49:12;25.10;38.10
17659;DHT22;8948;51.534;8.262;2023-04-22T12:54:14;24.50;37.00
17659;DHT22;8948;51.534;8.262;2023-04-22T12:59:14;23.70;37.70
17659;DHT22;8948;51.534;8.262;2023-04-22T13:04:17;23.40;39.30
17659;DHT22;8948;51.534;8.262;2023-04-22T13:09:18;23.50;39.90
17659;DHT22;8948;51.534;8.262;2023-04-22T13:14:19;24.50;37.80
17659;DHT22;8948;51.534;8.262;2023-04-22T13:19:20;24.40;39.00
17659;DHT22;8948;51.534;8.262;2023-04-22T13:24:23;25.00;38.10
17659;DHT22;8948;51.534;8.262;2023-04-22T13:29:24;25.40;38.30
17659;DHT22;8948;51.534;8.262;2023-04-22T13:34:25;25.30;37.80
17659;DHT22;8948;51.534;8.262;2023-04-22T13:39:26;24.70;38.80
17659;DHT22;8948;51.534;8.262;2023-04-22T13:44:26;24.80;39.30
17659;DHT22;8948;51.534;8.262;2023-04-22T13:49:27;25.70;38.10
17659;DHT22;8948;51.534;8.262;2023-04-22T13:54:28;25.50;37.50
17659;DHT22;8948;51.534;8.262;2023-04-22T13:59:30;25.10;37.60
17659;DHT22;8948;51.534;8.262;2023-04-22T14:04:31;24.90;38.50
17659;DHT22;8948;51.534;8.262;2023-04-22T14:09:32;24.90;38.00
17659;DHT22;8948;51.534;8.262;2023-04-22T14:14:33;24.80;37.90
17659;DHT22;8948;51.534;8.262;2023-04-22T14:19:34;25.40;37.20
17659;DHT22;8948;51.534;8.262;2023-04-22T14:24:38;25.80;38.20
17659;DHT22;8948;51.534;8.262;2023-04-22T14:29:39;25.50;39.50
17659;DHT22;8948;51.534;8.262;2023-04-22T14:34:40;24.90;39.40
17659;DHT22;8948;51.534;8.262;2023-04-22T14:39:40;24.50;39.20
17659;DHT22;8948;51.534;8.262;2023-04-22T14:44:41;24.40;39.30
17659;DHT22;8948;51.534;8.262;2023-04-22T14:49:42;24.50;39.60
17659;DHT22;8948;51.534;8.262;2023-04-22T14:54:42;24.70;39.80
17659;DHT22;8948;51.534;8.262;2023-04-22T14:59:43;24.30;39.20
17659;DHT22;8948;51.534;8.262;2023-04-22T15:04:44;23.90;41.50
17659;DHT22;8948;51.534;8.262;2023-04-22T15:09:45;23.50;40.50
17659;DHT22;8948;51.534;8.262;2023-04-22T15:14:45;22.90;42.10
17659;DHT22;8948;51.534;8.262;2023-04-22T15:19:46;22.70;43.10
17659;DHT22;8948;51.534;8.262;2023-04-22T15:24:47;22.40;42.00
17659;DHT22;8948;51.534;8.262;2023-04-22T15:29:47;22.20;42.60
17659;DHT22;8948;51.534;8.262;2023-04-22T15:34:48;22.10;43.30
17659;DHT22;8948;51.534;8.262;2023-04-22T15:39:48;22.00;44.10
17659;DHT22;8948;51.534;8.262;2023-04-22T15:44:49;21.80;44.40
17659;DHT22;8948;51.534;8.262;2023-04-22T15:49:50;21.70;44.90
17659;DHT22;8948;51.534;8.262;2023-04-22T15:54:50;21.60;44.90
17659;DHT22;8948;51.534;8.262;2023-04-22T15:59:51;21.50;45.20
17659;DHT22;8948;51.534;8.262;2023-04-22T16:04:51;21.30;45.70
17659;DHT22;8948;51.534;8.262;2023-04-22T16:09:52;21.10;46.30
17659;DHT22;8948;51.534;8.262;2023-04-22T16:14:52;20.80;47.10
17659;DHT22;8948;51.534;8.262;2023-04-22T16:19:53;20.60;48.00
17659;DHT22;8948;51.534;8.262;2023-04-22T16:24:55;20.70;47.30
17659;DHT22;8948;51.534;8.262;2023-04-22T16:29:56;20.70;48.40
17659;DHT22;8948;51.534;8.262;2023-04-22T16:34:56;20.70;48.60
17659;DHT22;8948;51.534;8.262;2023-04-22T16:39:57;20.70;48.70
17659;DHT22;8948;51.534;8.262;2023-04-22T16:44:58;20.70;48.60
17659;DHT22;8948;51.534;8.262;2023-04-22T16:49:58;20.60;49.00
17659;DHT22;8948;51.534;8.262;2023-04-22T16:54:59;20.40;49.00
17659;DHT22;8948;51.534;8.262;2023-04-22T16:59:59;20.50;49.60
17659;DHT22;8948;51.534;8.262;2023-04-22T17:05:00;20.40;50.00
17659;DHT22;8948;51.534;8.262;2023-04-22T17:10:01;20.30;50.20
17659;DHT22;8948;51.534;8.262;2023-04-22T17:15:02;20.30;50.70
17659;DHT22;8948;51.534;8.262;2023-04-22T17:20:03;20.30;51.00
17659;DHT22;8948;51.534;8.262;2023-04-22T17:25:06;20.30;51.50
17659;DHT22;8948;51.534;8.262;2023-04-22T17:30:07;20.30;51.30
17659;DHT22;8948;51.534;8.262;2023-04-22T17:35:08;20.20;51.80
17659;DHT22;8948;51.534;8.262;2023-04-22T17:40:09;20.30;51.90
17659;DHT22;8948;51.534;8.262;2023-04-22T17:45:10;20.40;51.70
17659;DHT22;8948;51.534;8.262;2023-04-22T17:50:11;20.30;52.30
17659;DHT22;8948;51.534;8.262;2023-04-22T17:55:12;20.10;51.70
17659;DHT22;8948;51.534;8.262;2023-04-22T18:00:13;19.90;51.30
17659;DHT22;8948;51.534;8.262;2023-04-22T18:05:13;19.80;51.70
17659;DHT22;8948;51.534;8.262;2023-04-22T18:10:14;19.70;51.90
17659;DHT22;8948;51.534;8.262;2023-04-22T18:15:15;19.60;51.30
17659;DHT22;8948;51.534;8.262;2023-04-22T18:20:15;19.50;51.60
17659;DHT22;8948;51.534;8.262;2023-04-22T18:25:18;19.30;51.30
17659;DHT22;8948;51.534;8.262;2023-04-22T18:30:22;19.20;51.60
17659;DHT22;8948;51.534;8.262;2023-04-22T18:35:23;19.20;51.60
17659;DHT22;8948;51.534;8.262;2023-04-22T18:40:23;19.10;51.90
17659;DHT22;8948;51.534;8.262;2023-04-22T18:45:24;19.10;52.30
17659;DHT22;8948;51.534;8.262;2023-04-22T18:50:24;18.90;52.40
17659;DHT22;8948;51.534;8.262;2023-04-22T18:55:25;18.90;52.70
17659;DHT22;8948;51.534;8.262;2023-04-22T19:00:25;18.80;53.00
17659;DHT22;8948;51.534;8.262;2023-04-22T19:05:26;18.60;53.80
17659;DHT22;8948;51.534;8.262;2023-04-22T19:10:27;18.50;54.20
17659;DHT22;8948;51.534;8.262;2023-04-22T19:15:27;18.50;54.60
17659;DHT22;8948;51.534;8.262;2023-04-22T19:20:28;18.30;55.00
17659;DHT22;8948;51.534;8.262;2023-04-22T19:25:29;18.20;55.50
17659;DHT22;8948;51.534;8.262;2023-04-22T19:30:29;18.00;56.60
17659;DHT22;8948;51.534;8.262;2023-04-22T19:35:30;17.90;56.80
17659;DHT22;8948;51.534;8.262;2023-04-22T19:40:31;17.80;57.50
17659;DHT22;8948;51.534;8.262;2023-04-22T19:45:31;17.90;58.10
17659;DHT22;8948;51.534;8.262;2023-04-22T19:50:32;17.80;58.70
17659;DHT22;8948;51.534;8.262;2023-04-22T19:55:34;17.80;59.10
17659;DHT22;8948;51.534;8.262;2023-04-22T20:00:36;17.70;59.60
17659;DHT22;8948;51.534;8.262;2023-04-22T20:05:36;17.70;59.90
17659;DHT22;8948;51.534;8.262;2023-04-22T20:10:37;17.80;60.10
17659;DHT22;8948;51.534;8.262;2023-04-22T20:15:38;17.90;59.70
17659;DHT22;8948;51.534;8.262;2023-04-22T20:20:39;17.80;59.60
17659;DHT22;8948;51.534;8.262;2023-04-22T20:25:43;17.80;59.70
17659;DHT22;8948;51.534;8.262;2023-04-22T20:30:45;17.60;61.10
17659;DHT22;8948;51.534;8.262;2023-04-22T20:35:46;17.30;61.90
17659;DHT22;8948;51.534;8.262;2023-04-22T20:40:48;17.20;61.80
17659;DHT22;8948;51.534;8.262;2023-04-22T20:45:51;17.10;62.00
17659;DHT22;8948;51.534;8.262;2023-04-22T20:50:52;17.00;62.20
17659;DHT22;8948;51.534;8.262;2023-04-22T20:55:53;17.00;62.10
17659;DHT22;8948;51.534;8.262;2023-04-22T21:00:53;17.00;61.90
17659;DHT22;8948;51.534;8.262;2023-04-22T21:05:55;17.00;61.90
17659;DHT22;8948;51.534;8.262;2023-04-22T21:10:56;17.00;61.60
17659;DHT22;8948;51.534;8.262;2023-04-22T21:16:01;17.10;61.60
17659;DHT22;8948;51.534;8.262;2023-04-22T21:21:03;16.90;61.90
17659;DHT22;8948;51.534;8.262;2023-04-22T21:26:04;16.90;61.70
17659;DHT22;8948;51.534;8.262;2023-04-22T21:31:05;16.90;61.80
17659;DHT22;8948;51.534;8.262;2023-04-22T21:36:06;16.90;61.70
17659;DHT22;8948;51.534;8.262;2023-04-22T21:41:07;16.90;61.70
17659;DHT22;8948;51.534;8.262;2023-04-22T21:46:07;16.90;61.80
17659;DHT22;8948;51.534;8.262;2023-04-22T21:51:08;16.80;61.90
17659;DHT22;8948;51.534;8.262;2023-04-22T21:56:09;16.70;62.10
17659;DHT22;8948;51.534;8.262;2023-04-22T22:01:09;16.60;62.30
17659;DHT22;8948;51.534;8.262;2023-04-22T22:06:10;16.50;62.50
17659;DHT22;8948;51.534;8.262;2023-04-22T22:11:10;16.50;62.50
17659;DHT22;8948;51.534;8.262;2023-04-22T22:16:11;16.40;63.10
17659;DHT22;8948;51.534;8.262;2023-04-22T22:21:12;16.40;63.10
17659;DHT22;8948;51.534;8.262;2023-04-22T22:26:12;16.20;64.00
17659;DHT22;8948;51.534;8.262;2023-04-22T22:31:13;15.50;63.90
17659;DHT22;8948;51.534;8.262;2023-04-22T22:36:14;15.30;65.00
17659;DHT22;8948;51.534;8.262;2023-04-22T22:41:15;15.20;65.60
17659;DHT22;8948;51.534;8.262;2023-04-22T22:46:16;14.90;68.00
17659;DHT22;8948;51.534;8.262;2023-04-22T22:51:16;14.70;68.80
17659;DHT22;8948;51.534;8.262;2023-04-22T22:56:17;14.70;69.20
17659;DHT22;8948;51.534;8.262;2023-04-22T23:01:20;14.80;69.30
17659;DHT22;8948;51.534;8.262;2023-04-22T23:06:21;14.80;69.20
17659;DHT22;8948;51.534;8.262;2023-04-22T23:11:22;14.90;69.10
17659;DHT22;8948;51.534;8.262;2023-04-22T23:16:22;14.80;68.80
17659;DHT22;8948;51.534;8.262;2023-04-22T23:21:23;14.90;68.40
17659;DHT22;8948;51.534;8.262;2023-04-22T23:26:24;14.80;68.80
17659;DHT22;8948;51.534;8.262;2023-04-22T23:31:26;14.70;69.20
17659;DHT22;8948;51.534;8.262;2023-04-22T23:36:32;14.70;69.30
17659;DHT22;8948;51.534;8.262;2023-04-22T23:41:35;14.60;69.30
17659;DHT22;8948;51.534;8.262;2023-04-22T23:46:36;14.70;68.70
17659;DHT22;8948;51.534;8.262;2023-04-22T23:51:36;14.60;69.00
17659;DHT22;8948;51.534;8.262;2023-04-22T23:56:37;14.60;69.00
